METAR Data
IDs: Format: Raw Decoded Include TAF

Data at: 0718 UTC 27 Feb 2020

METAR for:TISX (St Croix/Rohlsen Arp, --, VI)
Text:TISX 270653Z AUTO 06006KT 10SM OVC060 24/19 A2999 RMK AO2 SLP156 T02390189
Temperature: 23.9°C ( 75°F)
Dewpoint: 18.9°C ( 66°F) [RH = 74%]
Pressure (altimeter):29.99 inches Hg (1015.7 mb) [Sea level pressure: 1015.6 mb]
Winds:from the ENE (60 degrees) at 7 MPH (6 knots; 3.1 m/s)
Visibility:10 or more sm (16+ km)
Ceiling:6000 feet AGL
Clouds: overcast cloud deck at 6000 feet AGL
QC Flag:automated observation with no human augmentation